Time;durP1;ratioP1;P1;durP2;ratioP2;P2;SDS_P1;SDS_P2;PMS_P1;PMS_P2;Temp;Humidity;BMP_temperature;BMP_pressure;BME280_temperature;BME280_humidity;BME280_pressure;Samples;Min_cycle;Max_cycle;Signal;HPM_P1;HPM_P2
2023/05/29 00:03:19;;;;;;;;;;;19.50;32.80;;;18.70;31.59;101641.44;12249854;19;19926;-86
2023/05/29 00:07:21;;;;;;;;;;;19.40;32.90;;;18.52;31.77;101622.50;12247481;19;19915;-86
2023/05/29 00:11:23;;;;;;;;;;;19.30;32.90;;;18.27;31.75;101586.44;12250475;19;20260;-86
2023/05/29 00:15:25;;;;;;;;;;;19.30;32.90;;;18.39;31.95;101609.34;12247540;19;19911;-86
2023/05/29 00:19:27;;;;;;;;;;;19.20;33.00;;;18.43;31.83;101631.97;12247384;19;19911;-86
2023/05/29 00:23:28;;;;;;;;;;;19.20;33.00;;;18.32;32.05;101616.03;12248516;19;19911;-87
2023/05/29 00:27:30;;;;;;;;;;;19.10;33.00;;;18.26;31.93;101630.56;12248417;19;19915;-86
2023/05/29 00:31:32;;;;;;;;;;;19.00;33.00;;;18.21;32.02;101626.56;12247473;19;19918;-86
2023/05/29 00:35:34;;;;;;;;;;;18.90;33.00;;;18.05;32.02;101608.34;12244757;19;19943;-86
2023/05/29 00:39:35;;;;;;;;;;;18.90;33.10;;;18.00;31.96;101616.59;12248980;19;19911;-86
2023/05/29 00:43:37;;;;;;;;;;;18.80;33.10;;;17.87;32.24;101605.22;12246792;19;19915;-86
2023/05/29 00:47:41;;;;;;;;;;;18.70;33.10;;;17.91;31.99;101622.53;12247503;19;19929;-86
2023/05/29 00:51:44;;;;;;;;;;;18.60;33.10;;;17.68;32.14;101595.91;12246775;19;20294;-86
2023/05/29 00:55:46;;;;;;;;;;;18.60;33.30;;;17.81;32.35;101624.16;12243950;19;19940;-86
2023/05/29 00:59:48;;;;;;;;;;;18.50;33.20;;;17.72;32.23;101622.16;12247435;19;19988;-86
2023/05/29 01:03:54;;;;;;;;;;;18.50;33.30;;;17.57;32.24;101624.91;12246394;19;19923;-86
2023/05/29 01:07:56;;;;;;;;;;;18.40;33.30;;;17.35;32.38;101593.03;12248819;19;19915;-86
2023/05/29 01:12:20;;;;;;;;;;;18.30;33.30;;;17.46;32.23;101627.44;12243395;19;20235;-86
2023/05/29 01:16:33;;;;;;;;;;;18.20;33.30;;;17.25;32.37;101614.81;12244555;19;19927;-86
2023/05/29 01:21:10;;;;;;;;;;;18.10;33.40;;;17.29;32.28;101641.00;12246962;19;19924;-86
2023/05/29 01:25:21;;;;;;;;;;;18.00;33.40;;;17.16;32.52;101630.41;12241181;19;19982;-86
2023/05/29 01:29:26;;;;;;;;;;;17.90;33.40;;;17.14;32.50;101638.44;12256879;19;19934;-86
2023/05/29 01:33:28;;;;;;;;;;;17.90;33.50;;;17.05;32.41;101631.16;12255976;19;19918;-86
2023/05/29 01:37:30;;;;;;;;;;;17.80;33.60;;;17.08;32.67;101648.56;12255254;19;19918;-86
2023/05/29 01:41:32;;;;;;;;;;;17.80;33.60;;;16.82;32.83;101611.59;12257091;19;19923;-86
2023/05/29 01:45:35;;;;;;;;;;;17.70;33.60;;;16.92;32.56;101646.97;12252811;19;19919;-86
2023/05/29 01:49:37;;;;;;;;;;;17.70;33.70;;;16.73;32.75;101620.09;12257165;19;19937;-86
2023/05/29 01:53:42;;;;;;;;;;;17.70;33.70;;;16.86;32.80;101646.53;12254764;19;20341;-86
2023/05/29 01:57:43;;;;;;;;;;;17.60;33.80;;;16.75;33.01;101645.44;12256479;19;20393;-86
2023/05/29 02:01:44;;;;;;;;;;;17.60;33.80;;;16.66;32.88;101637.25;12254955;19;19915;-87
2023/05/29 02:05:46;;;;;;;;;;;17.50;33.80;;;16.58;33.08;101629.88;12252211;19;19907;-86
2023/05/29 02:09:48;;;;;;;;;;;17.50;33.80;;;16.54;32.90;101631.03;12255407;19;19919;-86
2023/05/29 02:13:51;;;;;;;;;;;17.40;33.80;;;16.37;33.19;101611.03;12255348;19;19915;-87
2023/05/29 02:17:53;;;;;;;;;;;17.40;33.90;;;16.51;33.11;101649.69;12255802;19;19930;-86
2023/05/29 02:21:55;;;;;;;;;;;17.30;33.90;;;16.45;33.00;101656.19;12256112;19;19954;-86
2023/05/29 02:25:57;;;;;;;;;;;17.20;33.90;;;16.26;33.22;101645.16;12250656;19;19999;-86
2023/05/29 02:29:59;;;;;;;;;;;17.20;33.90;;;16.24;33.11;101647.88;12257015;19;19911;-86
2023/05/29 02:34:01;;;;;;;;;;;17.10;34.30;;;16.19;33.15;101644.69;12251962;19;20207;-86
2023/05/29 02:38:02;;;;;;;;;;;17.00;34.00;;;16.17;33.24;101654.47;12255036;19;20374;-86
2023/05/29 02:42:05;;;;;;;;;;;17.00;34.10;;;16.11;33.40;101652.25;12254421;19;19925;-86
2023/05/29 02:46:07;;;;;;;;;;;16.90;34.10;;;15.93;33.41;101630.53;12251928;19;19911;-87
2023/05/29 02:50:09;;;;;;;;;;;16.80;34.00;;;15.99;33.27;101653.03;12256193;19;20004;-86
2023/05/29 02:54:12;;;;;;;;;;;16.80;34.10;;;15.96;33.32;101661.97;12255335;19;19915;-86
2023/05/29 02:58:13;;;;;;;;;;;16.70;34.20;;;15.77;33.51;101651.75;12253401;19;19927;-86
2023/05/29 03:02:15;;;;;;;;;;;16.70;34.20;;;15.70;33.40;101656.53;12254299;19;19978;-86
2023/05/29 03:06:17;;;;;;;;;;;16.60;34.10;;;15.72;33.42;101671.41;12251037;19;19990;-86
2023/05/29 03:10:19;;;;;;;;;;;16.50;34.20;;;15.57;33.57;101658.19;12252368;19;20358;-86
2023/05/29 03:14:21;;;;;;;;;;;16.50;34.60;;;15.49;33.73;101666.56;12249329;19;19968;-86
2023/05/29 03:18:23;;;;;;;;;;;16.40;34.50;;;15.37;33.55;101653.31;12251949;19;19927;-86
2023/05/29 03:22:25;;;;;;;;;;;16.30;34.40;;;15.33;33.78;101652.63;12251040;19;19926;-86
2023/05/29 03:26:27;;;;;;;;;;;16.30;35.10;;;15.39;33.73;101681.25;12247834;19;19922;-86
2023/05/29 03:30:28;;;;;;;;;;;16.30;35.10;;;15.21;33.83;101656.84;12251455;19;19922;-86
2023/05/29 03:34:31;;;;;;;;;;;16.20;34.90;;;15.22;33.98;101660.34;12248389;19;19918;-85
2023/05/29 03:38:35;;;;;;;;;;;16.10;35.40;;;15.27;33.95;101674.06;12249641;19;20016;-86
2023/05/29 03:42:38;;;;;;;;;;;16.10;34.90;;;15.22;34.04;101679.59;12250147;19;19922;-86
2023/05/29 03:46:40;;;;;;;;;;;16.10;35.30;;;15.10;33.96;101669.81;12246296;19;20378;-86
2023/05/29 03:50:41;;;;;;;;;;;16.10;35.00;;;15.16;33.90;101685.22;12248524;19;19915;-86
2023/05/29 03:54:44;;;;;;;;;;;16.00;35.00;;;15.11;34.08;101673.28;12249375;19;19922;-86
2023/05/29 03:58:46;;;;;;;;;;;16.00;35.20;;;15.07;34.22;101683.16;12249465;19;20238;-86
2023/05/29 04:02:48;;;;;;;;;;;16.00;36.80;;;15.05;34.32;101683.22;12249373;19;20025;-86
2023/05/29 04:06:50;;;;;;;;;;;16.00;35.60;;;15.07;34.13;101690.16;12245226;19;20372;-86
2023/05/29 04:10:55;;;;;;;;;;;16.00;35.50;;;14.79;34.34;101649.72;12250413;19;19911;-86
2023/05/29 04:14:57;;;;;;;;;;;16.00;35.70;;;15.05;34.37;101699.00;12247381;19;19914;-85
2023/05/29 04:19:00;;;;;;;;;;;16.00;36.70;;;15.07;34.29;101695.44;12248897;19;19915;-86
2023/05/29 04:23:04;;;;;;;;;;;15.90;36.00;;;15.08;34.45;101710.31;12248377;19;19944;-86
2023/05/29 04:27:06;;;;;;;;;;;16.00;36.40;;;14.93;34.40;101675.19;12245342;19;19918;-86
2023/05/29 04:31:14;;;;;;;;;;;16.00;36.00;;;15.02;34.59;101685.19;12246506;19;19921;-87
2023/05/29 04:35:16;;;;;;;;;;;16.00;36.00;;;15.15;34.50;101698.47;12250624;19;19919;-86
2023/05/29 04:39:30;;;;;;;;;;;16.00;36.10;;;15.20;34.55;101706.94;12250822;19;19918;-86
2023/05/29 04:43:36;;;;;;;;;;;16.10;36.10;;;15.21;34.55;101700.75;12249765;19;20345;-87
2023/05/29 04:47:43;;;;;;;;;;;16.10;35.80;;;15.10;34.67;101671.59;12250659;19;19930;-87
2023/05/29 04:51:46;;;;;;;;;;;16.20;35.70;;;15.32;34.90;101702.75;12249190;19;19929;-86
2023/05/29 04:55:48;;;;;;;;;;;16.20;35.90;;;15.43;34.74;101700.31;12246772;19;19925;-86
2023/05/29 04:59:50;;;;;;;;;;;16.40;36.00;;;15.49;34.89;101694.69;12248705;19;19923;-86
2023/05/29 05:04:00;;;;;;;;;;;16.40;36.90;;;15.35;34.87;101655.19;12260776;19;19933;-86
2023/05/29 05:08:02;;;;;;;;;;;16.40;36.50;;;15.68;34.98;101704.94;12261021;19;19951;-86
2023/05/29 05:12:05;;;;;;;;;;;16.70;36.30;;;15.67;34.92;101690.09;12260838;19;20265;-86
2023/05/29 05:16:07;;;;;;;;;;;16.80;36.20;;;15.82;34.88;101698.84;12255797;19;19924;-87
2023/05/29 05:20:11;;;;;;;;;;;16.90;36.90;;;15.96;35.03;101708.53;12259430;19;19950;-87
2023/05/29 05:24:13;;;;;;;;;;;17.00;36.40;;;16.09;35.09;101712.97;12255374;19;19925;-86
2023/05/29 05:28:16;;;;;;;;;;;17.20;36.60;;;16.18;35.08;101708.91;12259572;19;20036;-86
2023/05/29 05:32:17;;;;;;;;;;;17.30;36.10;;;16.31;35.30;101714.22;12258491;19;19930;-86
2023/05/29 05:36:21;;;;;;;;;;;17.40;36.40;;;16.11;35.27;101665.41;12254930;19;20353;-86
2023/05/29 05:40:30;;;;;;;;;;;17.50;36.20;;;16.53;35.17;101716.34;12259626;19;19974;-86
2023/05/29 05:44:37;;;;;;;;;;;17.70;36.40;;;16.56;35.21;101701.19;12254074;19;19943;-86
2023/05/29 05:48:44;;;;;;;;;;;17.80;36.60;;;16.70;35.44;101702.06;12259739;19;19936;-86
2023/05/29 05:52:47;;;;;;;;;;;17.90;36.50;;;17.01;35.49;101722.00;12258391;19;20323;-86
2023/05/29 05:56:49;;;;;;;;;;;18.10;36.20;;;17.19;35.40;101722.59;12255973;19;20349;-86
2023/05/29 06:00:53;;;;;;;;;;;18.30;36.20;;;17.36;35.39;101721.44;12257572;19;19922;-84
2023/05/29 06:04:55;;;;;;;;;;;18.50;36.50;;;17.51;35.65;101715.13;12252238;19;20340;-85
2023/05/29 06:08:58;;;;;;;;;;;18.70;36.20;;;17.73;35.58;101730.34;12255138;19;19934;-84
2023/05/29 06:12:59;;;;;;;;;;;18.90;35.70;;;17.78;35.83;101722.09;12253700;19;19940;-86
2023/05/29 06:17:10;;;;;;;;;;;19.10;35.60;;;17.87;35.68;101713.56;12252307;19;19907;-85
2023/05/29 06:21:13;;;;;;;;;;;19.20;36.00;;;18.08;35.52;101735.81;12255310;19;19925;-88
2023/05/29 06:25:20;;;;;;;;;;;19.30;36.50;;;18.15;35.55;101728.31;12253520;19;20386;-85
2023/05/29 06:29:21;;;;;;;;;;;19.40;37.00;;;18.30;35.59;101736.94;12258203;19;20337;-85
2023/05/29 06:33:24;;;;;;;;;;;19.50;36.50;;;18.49;35.70;101750.53;12255871;19;19935;-85
2023/05/29 06:37:25;;;;;;;;;;;19.70;36.20;;;18.34;35.75;101702.25;12251460;19;19929;-84
2023/05/29 06:41:27;;;;;;;;;;;19.80;36.40;;;18.66;35.54;101729.94;12256523;19;19929;-85
2023/05/29 06:45:28;;;;;;;;;;;20.00;36.10;;;18.91;35.73;101751.03;12253107;19;19922;-84
2023/05/29 06:49:30;;;;;;;;;;;20.10;36.40;;;18.95;35.54;101735.75;12257116;19;20294;-84
2023/05/29 06:53:31;;;;;;;;;;;20.20;35.90;;;19.09;35.55;101738.25;12256484;19;19923;-85
2023/05/29 06:57:34;;;;;;;;;;;20.40;36.00;;;19.30;35.66;101759.59;12256136;19;19918;-84
2023/05/29 07:01:36;;;;;;;;;;;20.50;35.20;;;19.28;35.78;101750.94;12253458;19;19914;-84
2023/05/29 07:05:38;;;;;;;;;;;20.60;35.20;;;19.43;35.78;101768.28;12253946;19;19922;-84
2023/05/29 07:09:40;;;;;;;;;;;20.70;35.00;;;19.48;35.85;101769.75;12254227;19;19927;-85
2023/05/29 07:13:42;;;;;;;;;;;20.70;35.00;;;19.55;35.38;101755.94;12242054;19;19915;-85
2023/05/29 07:17:43;;;;;;;;;;;20.80;35.40;;;19.71;35.54;101766.22;12252024;19;19944;-85
2023/05/29 07:21:53;;;;;;;;;;;20.90;35.10;;;19.88;35.45;101770.22;12252488;19;19923;-86
2023/05/29 07:25:57;;;;;;;;;;;21.10;35.00;;;19.97;35.79;101755.41;12250098;19;19915;-85
2023/05/29 07:30:02;;;;;;;;;;;21.20;35.00;;;20.25;35.75;101775.25;12249260;19;19923;-85
2023/05/29 07:34:03;;;;;;;;;;;21.40;35.10;;;20.38;35.53;101764.53;12252332;19;19922;-85
2023/05/29 07:38:05;;;;;;;;;;;21.60;35.10;;;20.55;35.58;101761.41;12248808;19;20318;-85
2023/05/29 07:42:08;;;;;;;;;;;21.80;34.90;;;20.84;35.27;101772.28;12247692;19;19922;-86
2023/05/29 07:46:10;;;;;;;;;;;22.00;34.90;;;21.02;35.72;101767.28;12245012;19;19922;-84
2023/05/29 07:50:15;;;;;;;;;;;22.20;35.30;;;21.13;35.49;101772.53;12251357;19;19929;-84
2023/05/29 07:54:18;;;;;;;;;;;22.40;34.90;;;21.14;35.43;101745.00;12249799;19;19988;-85
2023/05/29 07:58:21;;;;;;;;;;;22.50;34.70;;;21.31;35.41;101758.69;12248673;19;19970;-86
2023/05/29 08:02:22;;;;;;;;;;;22.70;34.80;;;21.62;35.53;101788.84;12247431;19;19922;-86
2023/05/29 08:06:43;;;;;;;;;;;22.70;34.40;;;21.90;35.15;101799.78;12242963;19;20590;-83
2023/05/29 08:10:45;;;;;;;;;;;23.10;34.40;;;21.97;35.47;101796.44;12246900;19;19922;-85
2023/05/29 08:14:47;;;;;;;;;;;23.20;34.20;;;22.04;35.50;101788.81;12241682;19;19947;-86
2023/05/29 08:18:49;;;;;;;;;;;23.30;33.50;;;22.09;35.35;101797.22;12246243;19;19915;-87
2023/05/29 08:22:51;;;;;;;;;;;23.40;33.80;;;22.25;35.27;101799.41;12245865;19;19923;-86
2023/05/29 08:26:52;;;;;;;;;;;23.40;33.90;;;22.33;35.02;101798.72;12244394;19;19918;-87
2023/05/29 08:30:54;;;;;;;;;;;23.60;33.60;;;22.36;34.99;101790.47;12246921;19;19919;-86
2023/05/29 08:34:56;;;;;;;;;;;23.60;33.50;;;22.12;34.82;101749.06;12247428;19;19911;-86
2023/05/29 08:38:57;;;;;;;;;;;23.60;33.80;;;22.52;35.03;101789.00;12250317;19;19931;-86
2023/05/29 08:43:03;;;;;;;;;;;23.70;33.90;;;22.48;34.98;101744.13;12250500;19;19944;-86
2023/05/29 08:47:06;;;;;;;;;;;23.80;33.40;;;22.80;35.05;101780.34;12242927;19;19927;-85
2023/05/29 08:51:10;;;;;;;;;;;23.90;33.50;;;22.86;34.54;101780.63;12246663;19;19918;-86
2023/05/29 08:55:12;;;;;;;;;;;24.10;33.20;;;22.96;34.48;101770.00;12242977;19;19939;-87
2023/05/29 08:59:13;;;;;;;;;;;24.20;33.40;;;23.15;34.54;101791.31;12245698;19;19911;-86
2023/05/29 09:03:15;;;;;;;;;;;24.30;33.40;;;23.25;34.79;101780.66;12244312;19;19915;-85
2023/05/29 09:07:18;;;;;;;;;;;24.40;33.30;;;23.20;34.80;101758.94;12243108;19;19919;-87
2023/05/29 09:11:21;;;;;;;;;;;24.50;33.20;;;23.49;34.62;101788.19;12246412;19;20368;-85
2023/05/29 09:15:23;;;;;;;;;;;24.60;33.00;;;23.53;34.37;101772.75;12244902;19;19923;-85
2023/05/29 09:19:25;;;;;;;;;;;24.70;33.10;;;23.71;34.49;101792.41;12248419;19;20385;-87
2023/05/29 09:23:27;;;;;;;;;;;24.80;33.30;;;23.75;34.52;101767.09;12245191;19;19931;-87
2023/05/29 09:27:28;;;;;;;;;;;25.00;33.30;;;23.96;34.19;101785.56;12248719;19;20230;-87
2023/05/29 09:31:30;;;;;;;;;;;25.10;32.90;;;23.99;34.22;101773.75;12245564;19;19978;-85
2023/05/29 09:35:52;;;;;;;;;;;25.20;33.30;;;24.23;33.89;101803.44;12245310;19;19922;-85
2023/05/29 09:39:53;;;;;;;;;;;25.30;32.70;;;24.26;34.06;101796.97;12248509;19;19923;-86
2023/05/29 09:43:56;;;;;;;;;;;25.40;32.60;;;24.29;33.86;101789.50;12243711;19;20655;-86
2023/05/29 09:47:58;;;;;;;;;;;25.40;32.30;;;24.33;33.97;101799.88;12248271;19;20314;-86
2023/05/29 09:52:00;;;;;;;;;;;25.50;32.00;;;24.40;34.23;101790.28;12256073;19;19926;-87
2023/05/29 09:56:02;;;;;;;;;;;25.50;32.70;;;24.47;33.72;101784.22;12249103;19;19986;-86
2023/05/29 10:00:12;;;;;;;;;;;25.60;32.70;;;24.48;33.72;101766.38;12255315;19;19924;-87
2023/05/29 10:04:14;;;;;;;;;;;25.60;32.70;;;24.38;33.47;101752.19;12254754;19;19915;-86
2023/05/29 10:08:18;;;;;;;;;;;25.70;31.90;;;24.58;33.47;101772.50;12256331;19;19918;-85
2023/05/29 10:12:21;;;;;;;;;;;25.70;32.30;;;24.44;33.95;101757.00;12257292;19;19926;-86
2023/05/29 10:16:23;;;;;;;;;;;25.70;31.70;;;24.62;33.81;101781.03;12252277;19;19919;-87
2023/05/29 10:20:26;;;;;;;;;;;25.70;32.50;;;24.58;33.58;101756.47;12254912;19;20328;-87
2023/05/29 10:24:28;;;;;;;;;;;25.80;32.60;;;24.69;33.48;101758.91;12252740;19;19915;-86
2023/05/29 10:28:30;;;;;;;;;;;25.80;32.40;;;24.64;33.70;101745.16;12254371;19;19943;-86
2023/05/29 10:33:20;;;;;;;;;;;25.90;32.30;;;24.97;33.46;101782.06;12254915;19;19918;-87
2023/05/29 10:37:37;;;;;;;;;;;26.00;32.00;;;25.03;33.47;101779.59;12247615;19;20105;-87
2023/05/29 10:41:42;;;;;;;;;;;26.00;32.10;;;25.12;33.35;101781.34;12255936;19;19948;-86
2023/05/29 10:45:43;;;;;;;;;;;26.10;32.40;;;25.11;33.15;101774.34;12250655;19;19914;-85
2023/05/29 10:49:50;;;;;;;;;;;26.10;31.80;;;25.05;33.32;101756.22;12252533;19;19911;-85
2023/05/29 10:53:52;;;;;;;;;;;26.10;32.40;;;25.11;33.13;101747.63;12252907;19;20246;-87
2023/05/29 10:57:54;;;;;;;;;;;26.20;32.30;;;25.27;33.28;101756.75;12254240;19;19911;-85
2023/05/29 11:01:57;;;;;;;;;;;26.30;32.30;;;25.27;33.61;101736.19;12251370;19;19999;-86
2023/05/29 11:06:07;;;;;;;;;;;26.40;32.60;;;25.61;33.12;101764.84;12251553;19;19943;-85
2023/05/29 11:10:13;;;;;;;;;;;26.60;32.20;;;25.70;32.95;101757.72;12253895;19;20320;-85
2023/05/29 11:14:15;;;;;;;;;;;26.70;32.50;;;25.67;32.98;101750.00;12253558;19;19922;-85
2023/05/29 11:18:19;;;;;;;;;;;26.80;31.90;;;25.71;32.71;101749.53;12252321;19;20249;-86
2023/05/29 11:22:26;;;;;;;;;;;26.80;31.90;;;25.62;33.05;101742.44;12245313;19;19929;-85
2023/05/29 11:26:28;;;;;;;;;;;26.80;31.80;;;25.76;32.91;101759.75;12247231;19;19999;-86
2023/05/29 11:30:30;;;;;;;;;;;26.70;31.50;;;25.65;32.97;101735.94;12252496;19;20412;-86
2023/05/29 11:34:32;;;;;;;;;;;26.70;32.00;;;25.66;32.52;101737.63;12249925;19;19918;-87
2023/05/29 11:38:34;;;;;;;;;;;26.70;32.30;;;25.74;32.88;101730.50;12250482;19;19935;-86
2023/05/29 11:42:43;;;;;;;;;;;26.70;32.00;;;25.74;32.88;101714.44;12250711;19;19923;-87
2023/05/29 11:46:45;;;;;;;;;;;26.80;31.90;;;25.66;32.50;101694.84;12248467;19;19943;-86
2023/05/29 11:50:46;;;;;;;;;;;26.80;31.70;;;25.86;32.51;101735.59;12249274;19;19929;-87
2023/05/29 11:54:49;;;;;;;;;;;26.80;31.90;;;25.74;32.38;101725.13;12247864;19;19915;-86
2023/05/29 11:58:51;;;;;;;;;;;26.80;32.10;;;25.78;32.83;101731.00;12247741;19;19919;-86
2023/05/29 12:02:52;;;;;;;;;;;26.80;32.00;;;25.91;32.22;101726.06;12249015;19;19922;-86
2023/05/29 12:06:54;;;;;;;;;;;26.80;31.80;;;25.95;32.40;101734.59;12245151;19;19933;-86
2023/05/29 12:10:55;;;;;;;;;;;26.90;30.70;;;25.95;32.37;101723.91;12249658;19;19922;-85
2023/05/29 12:14:58;;;;;;;;;;;26.90;31.60;;;25.96;32.54;101728.28;12249862;19;19922;-85
2023/05/29 12:19:00;;;;;;;;;;;27.00;31.30;;;25.96;32.22;101725.59;12249984;19;19915;-86
2023/05/29 12:23:02;;;;;;;;;;;26.90;31.80;;;25.93;32.17;101726.75;12247917;19;19925;-86
2023/05/29 12:27:07;;;;;;;;;;;26.90;31.70;;;25.87;32.25;101710.50;12247779;19;19936;-85
2023/05/29 12:31:09;;;;;;;;;;;26.90;31.60;;;25.93;32.25;101716.06;12248984;19;19927;-84
2023/05/29 12:35:18;;;;;;;;;;;26.90;31.50;;;25.87;32.06;101695.28;12245907;19;19922;-85
2023/05/29 12:39:20;;;;;;;;;;;26.90;31.30;;;26.13;32.17;101713.09;12249405;19;19914;-86
2023/05/29 12:43:22;;;;;;;;;;;27.00;31.40;;;26.15;31.79;101708.44;12249843;19;19970;-84
2023/05/29 12:47:24;;;;;;;;;;;27.10;30.60;;;26.25;32.13;101717.16;12245615;19;20329;-85
2023/05/29 12:51:27;;;;;;;;;;;27.10;31.50;;;26.23;31.65;101716.47;12249715;19;19919;-83
2023/05/29 12:55:30;;;;;;;;;;;27.10;31.00;;;26.12;31.71;101701.56;12248309;19;19915;-84
2023/05/29 12:59:31;;;;;;;;;;;27.10;29.80;;;26.15;31.91;101700.41;12247881;19;19923;-87
2023/05/29 13:03:33;;;;;;;;;;;27.10;30.20;;;26.03;31.60;101686.44;12247988;19;19919;-84
2023/05/29 13:07:35;;;;;;;;;;;27.10;30.10;;;26.12;31.41;101700.72;12249347;19;19929;-84
2023/05/29 13:11:37;;;;;;;;;;;27.10;30.50;;;26.20;31.61;101701.59;12247668;19;19915;-85
2023/05/29 13:15:40;;;;;;;;;;;27.10;30.50;;;26.29;31.84;101698.91;12245721;19;19919;-85
2023/05/29 13:19:41;;;;;;;;;;;27.20;31.00;;;26.39;31.32;101692.41;12249556;19;20576;-86
2023/05/29 13:23:43;;;;;;;;;;;27.20;31.30;;;26.37;31.42;101675.66;12257502;19;19919;-84
2023/05/29 13:27:46;;;;;;;;;;;27.30;30.50;;;26.47;31.41;101687.06;12260845;19;19919;-85
2023/05/29 13:31:47;;;;;;;;;;;27.40;31.10;;;26.42;31.15;101677.84;12262199;19;19962;-86
2023/05/29 13:35:49;;;;;;;;;;;27.40;31.30;;;26.51;31.14;101694.78;12261976;19;19990;-85
2023/05/29 13:39:51;;;;;;;;;;;27.40;30.90;;;26.48;31.62;101685.22;12262190;19;19919;-84
2023/05/29 13:43:52;;;;;;;;;;;27.40;30.90;;;26.39;31.06;101676.34;12263754;19;19926;-84
2023/05/29 13:47:55;;;;;;;;;;;27.40;30.80;;;26.29;31.05;101659.59;12265910;19;19926;-84
2023/05/29 13:51:56;;;;;;;;;;;27.30;30.90;;;26.15;31.22;101647.69;12265333;19;19945;-84
2023/05/29 13:55:58;;;;;;;;;;;27.30;31.10;;;26.28;31.28;101676.66;12256847;19;19921;-85
2023/05/29 13:59:59;;;;;;;;;;;27.20;31.10;;;26.25;31.38;101677.81;12259343;19;19926;-85
2023/05/29 14:04:01;;;;;;;;;;;27.10;30.90;;;26.18;31.29;101684.00;12262171;19;19910;-85
2023/05/29 14:08:02;;;;;;;;;;;27.10;30.50;;;26.05;31.24;101663.88;12261141;19;19978;-86
2023/05/29 14:12:05;;;;;;;;;;;27.00;31.10;;;26.14;30.91;101683.50;12264734;19;19926;-85
2023/05/29 14:16:07;;;;;;;;;;;27.00;31.00;;;26.09;31.02;101685.00;12258468;19;19930;-85
2023/05/29 14:20:08;;;;;;;;;;;26.90;31.20;;;26.13;31.04;101697.03;12261013;19;19939;-85
2023/05/29 14:24:10;;;;;;;;;;;26.90;31.00;;;26.06;30.85;101694.19;12260610;19;19999;-85
2023/05/29 14:28:12;;;;;;;;;;;26.90;30.50;;;26.09;31.10;101699.22;12260743;19;19915;-85
2023/05/29 14:32:14;;;;;;;;;;;26.90;31.20;;;25.98;30.94;101667.41;12262327;19;19994;-85
2023/05/29 14:36:16;;;;;;;;;;;26.80;31.10;;;26.02;30.81;101666.88;12254220;19;20244;-85
2023/05/29 14:40:17;;;;;;;;;;;26.90;31.30;;;26.15;31.29;101674.44;12260667;19;19915;-84
2023/05/29 14:44:18;;;;;;;;;;;26.90;31.00;;;26.24;31.04;101672.63;12255915;19;19911;-85
2023/05/29 14:48:20;;;;;;;;;;;27.00;31.10;;;26.25;30.98;101658.25;12259626;19;19927;-85
2023/05/29 14:52:22;;;;;;;;;;;27.00;31.20;;;26.26;31.12;101642.00;12255836;19;19919;-86
2023/05/29 14:56:23;;;;;;;;;;;27.10;31.30;;;26.40;30.70;101647.72;12251710;19;19922;-85
2023/05/29 15:00:25;;;;;;;;;;;27.20;30.90;;;26.54;30.91;101671.19;12250889;19;19919;-86
2023/05/29 15:04:27;;;;;;;;;;;27.20;31.20;;;26.60;30.94;101662.50;12255428;19;19927;-85
2023/05/29 15:08:33;;;;;;;;;;;27.30;30.90;;;26.52;30.86;101648.25;12255818;19;19928;-86
2023/05/29 15:12:35;;;;;;;;;;;27.40;30.60;;;26.63;30.94;101656.81;12255708;19;20262;-85
2023/05/29 15:16:36;;;;;;;;;;;27.50;31.10;;;26.62;30.92;101654.28;12246074;19;20496;-84
2023/05/29 15:20:38;;;;;;;;;;;27.40;30.70;;;26.58;30.50;101645.75;12255441;19;19914;-84
2023/05/29 15:24:39;;;;;;;;;;;27.50;30.60;;;26.63;30.65;101653.28;12263067;19;19970;-85
2023/05/29 15:28:41;;;;;;;;;;;27.40;30.90;;;26.56;30.76;101649.59;12256030;19;19918;-85
2023/05/29 15:32:43;;;;;;;;;;;27.40;31.00;;;26.38;30.43;101617.56;12257401;19;19926;-85
2023/05/29 15:36:45;;;;;;;;;;;27.40;31.00;;;26.55;30.62;101647.94;12250318;19;19943;-86
2023/05/29 15:40:46;;;;;;;;;;;27.40;31.10;;;26.53;30.41;101649.94;12253512;19;19925;-85
2023/05/29 15:44:48;;;;;;;;;;;27.30;30.60;;;26.29;30.39;101605.19;12254605;19;19914;-86
2023/05/29 15:48:49;;;;;;;;;;;27.30;30.70;;;26.47;30.73;101641.53;12245405;19;20351;-86
2023/05/29 15:52:51;;;;;;;;;;;27.30;30.00;;;26.50;30.38;101648.41;12240589;19;20489;-86
2023/05/29 15:56:52;;;;;;;;;;;27.30;30.60;;;26.49;30.82;101660.97;12252590;19;19925;-85
2023/05/29 16:00:55;;;;;;;;;;;27.30;30.60;;;26.53;30.28;101649.94;12254051;19;19923;-85
2023/05/29 16:04:56;;;;;;;;;;;27.20;31.00;;;26.44;30.61;101649.06;12252427;19;19939;-85
2023/05/29 16:08:58;;;;;;;;;;;27.30;30.80;;;26.34;30.55;101641.19;12254396;19;19940;-85
2023/05/29 16:12:59;;;;;;;;;;;27.20;30.60;;;26.24;30.63;101643.16;12255103;19;19917;-86
2023/05/29 16:17:01;;;;;;;;;;;27.10;30.30;;;26.05;30.45;101630.91;12252108;19;19971;-86
2023/05/29 16:21:02;;;;;;;;;;;27.00;30.30;;;26.16;30.37;101648.50;12253572;19;19943;-85
2023/05/29 16:25:05;;;;;;;;;;;26.90;30.10;;;25.98;30.56;101638.78;12253577;19;19914;-86
2023/05/29 16:29:06;;;;;;;;;;;26.90;30.10;;;26.03;30.11;101657.88;12250297;19;19944;-86
2023/05/29 16:33:08;;;;;;;;;;;26.80;29.90;;;25.70;30.34;101614.06;12243397;19;19918;-85
2023/05/29 16:37:09;;;;;;;;;;;26.70;30.00;;;25.90;30.36;101664.69;12249995;19;19927;-86
2023/05/29 16:41:11;;;;;;;;;;;26.60;30.40;;;25.67;30.12;101632.28;12249314;19;20270;-86
2023/05/29 16:45:16;;;;;;;;;;;26.50;30.10;;;25.69;30.29;101641.00;12247245;19;20212;-86
2023/05/29 16:49:19;;;;;;;;;;;26.50;30.40;;;25.65;30.22;101637.78;12252208;19;19951;-86
2023/05/29 16:53:20;;;;;;;;;;;26.40;30.10;;;25.65;30.09;101643.13;12250222;19;19952;-86
2023/05/29 16:57:22;;;;;;;;;;;26.40;30.50;;;25.64;30.23;101654.84;12251650;19;20338;-85
2023/05/29 17:01:24;;;;;;;;;;;26.30;30.10;;;25.64;30.43;101665.53;12263075;19;19923;-86
2023/05/29 17:05:25;;;;;;;;;;;26.30;30.50;;;25.56;30.10;101662.84;12261003;19;19914;-85
2023/05/29 17:09:27;;;;;;;;;;;26.30;30.20;;;25.55;30.42;101671.88;12263091;19;19915;-86
2023/05/29 17:13:29;;;;;;;;;;;26.30;30.50;;;25.49;30.38;101672.47;12260759;19;20447;-85
2023/05/29 17:17:30;;;;;;;;;;;26.20;30.10;;;25.40;30.20;101660.91;12261641;19;19915;-85
2023/05/29 17:21:32;;;;;;;;;;;26.10;30.50;;;25.37;30.40;101656.72;12256709;19;20654;-85
2023/05/29 17:25:33;;;;;;;;;;;26.10;30.40;;;25.31;30.41;101648.50;12255755;19;20352;-85
2023/05/29 17:29:35;;;;;;;;;;;26.10;30.80;;;25.20;30.25;101638.94;12255285;19;19931;-85
2023/05/29 17:33:36;;;;;;;;;;;26.10;30.20;;;25.30;30.36;101663.72;12256699;19;19911;-85
2023/05/29 17:37:38;;;;;;;;;;;26.00;30.10;;;25.13;29.95;101662.72;12255119;19;19922;-85
2023/05/29 17:41:39;;;;;;;;;;;25.90;30.50;;;25.05;30.37;101648.47;12256478;19;20020;-85
2023/05/29 17:45:41;;;;;;;;;;;25.80;30.50;;;24.95;30.18;101648.56;12253001;19;19915;-86
2023/05/29 17:49:43;;;;;;;;;;;25.80;30.60;;;24.91;30.35;101653.41;12258388;19;19922;-86
2023/05/29 17:53:45;;;;;;;;;;;25.70;30.70;;;24.78;30.25;101642.28;12255983;19;19918;-85
2023/05/29 17:57:47;;;;;;;;;;;25.60;30.50;;;24.79;29.85;101659.13;12254365;19;20242;-85
2023/05/29 18:01:48;;;;;;;;;;;25.50;30.50;;;24.73;29.96;101674.81;12253571;19;19940;-85
2023/05/29 18:05:50;;;;;;;;;;;25.50;30.50;;;24.63;30.18;101671.38;12253568;19;19915;-85
2023/05/29 18:09:51;;;;;;;;;;;25.40;30.40;;;24.48;30.39;101663.06;12251378;19;19951;-85
2023/05/29 18:13:53;;;;;;;;;;;25.30;30.60;;;24.49;29.93;101664.75;12253809;19;19919;-85